createdAt,value
2022-12-07T00:04:43.452Z,996.97
2022-12-07T00:09:43.305Z,996.88
2022-12-07T00:14:42.575Z,996.85
2022-12-07T00:19:45.336Z,996.72
2022-12-07T04:32:23.528Z,995.18
2022-12-07T04:37:21.880Z,995.09
2022-12-07T04:42:21.605Z,995.10
2022-12-07T04:47:21.774Z,995.10
2022-12-07T04:52:22.026Z,995.01
2022-12-07T04:57:21.491Z,994.93
2022-12-07T05:02:21.524Z,994.96
2022-12-07T05:07:21.285Z,994.91
2022-12-07T05:12:21.307Z,994.89
2022-12-07T05:17:21.253Z,994.82
2022-12-07T05:22:24.288Z,994.84
2022-12-07T05:27:21.161Z,994.82
2022-12-07T05:32:21.184Z,994.84
2022-12-07T05:37:21.418Z,994.81
2022-12-07T05:55:39.811Z,994.81
2022-12-07T06:13:46.991Z,994.79
2022-12-07T06:18:43.030Z,994.88
2022-12-07T06:23:41.809Z,994.90
2022-12-07T06:35:28.054Z,994.87
2022-12-07T07:16:44.821Z,995.09
2022-12-07T07:41:49.991Z,995.19
2022-12-07T07:46:49.983Z,995.21
2022-12-07T07:51:49.927Z,995.27
2022-12-07T07:56:49.797Z,995.11
2022-12-07T08:04:14.977Z,995.19
2022-12-07T08:09:16.068Z,995.18
2022-12-07T08:14:16.531Z,995.11
2022-12-07T08:24:06.006Z,995.01
2022-12-07T08:29:05.912Z,995.02
2022-12-07T08:34:06.065Z,995.01
2022-12-07T08:39:30.966Z,995.05
2022-12-07T10:11:19.185Z,994.68
2022-12-07T11:08:13.929Z,994.41
2022-12-07T11:42:00.271Z,994.50
2022-12-07T12:11:44.488Z,994.09
2022-12-07T12:18:51.239Z,994.05
2022-12-07T12:23:50.979Z,994.03
2022-12-07T12:28:51.042Z,994.10
2022-12-07T12:33:50.936Z,994.09
2022-12-07T12:38:50.797Z,994.11
2022-12-07T12:47:19.702Z,994.05
2022-12-07T12:53:38.457Z,993.98
2022-12-07T12:58:38.104Z,994.04
2022-12-07T13:03:38.046Z,994.00
2022-12-07T13:08:37.975Z,994.04
2022-12-07T13:13:38.210Z,994.02
2022-12-07T13:18:37.906Z,993.98
2022-12-07T13:23:37.807Z,993.95
2022-12-07T13:28:37.850Z,993.87
2022-12-07T13:33:37.848Z,993.83
2022-12-07T13:38:37.640Z,993.85
2022-12-07T13:43:40.596Z,993.91
2022-12-07T13:48:37.473Z,993.91
2022-12-07T13:53:37.671Z,993.92
2022-12-07T13:58:37.283Z,993.89
2022-12-07T14:03:37.490Z,993.93
2022-12-07T14:08:37.228Z,993.89
2022-12-07T14:16:28.102Z,993.97
2022-12-07T14:21:27.919Z,993.98
2022-12-07T14:26:27.918Z,993.88
2022-12-07T14:31:30.806Z,993.89
2022-12-07T14:38:56.421Z,993.75
2022-12-07T14:44:22.008Z,993.75
2022-12-07T14:53:59.655Z,993.65
2022-12-07T14:58:56.537Z,993.69
2022-12-07T15:03:56.426Z,993.71
2022-12-07T15:09:03.223Z,993.74
2022-12-07T15:13:56.050Z,993.78
2022-12-07T15:19:26.283Z,993.84
2022-12-07T15:23:57.028Z,993.81
2022-12-07T15:28:58.773Z,993.82
2022-12-07T15:33:55.687Z,993.89
2022-12-07T15:39:13.705Z,993.93
2022-12-07T15:43:56.650Z,993.98
2022-12-07T15:48:55.470Z,993.98
2022-12-07T15:53:55.453Z,994.00
2022-12-07T15:58:55.431Z,993.99
2022-12-07T16:03:55.400Z,993.94
2022-12-07T16:08:55.283Z,993.99
2022-12-07T16:13:55.181Z,993.96
2022-12-07T16:18:55.105Z,993.98
2022-12-07T16:23:55.264Z,993.97
2022-12-07T16:28:58.132Z,994.02
2022-12-07T16:33:55.077Z,993.98
2022-12-07T16:38:54.868Z,994.01
2022-12-07T16:43:54.778Z,993.97
2022-12-07T16:48:54.881Z,993.92
2022-12-07T16:53:54.616Z,993.93
2022-12-07T16:58:54.571Z,993.96
2022-12-07T17:03:54.540Z,993.96
2022-12-07T17:08:54.580Z,993.97
2022-12-07T17:13:54.335Z,993.96
2022-12-07T17:18:54.525Z,993.89
2022-12-07T17:23:54.225Z,993.98
2022-12-07T17:28:57.624Z,993.91
2022-12-07T17:33:54.123Z,994.03
2022-12-07T17:38:54.171Z,994.03
2022-12-07T17:43:53.978Z,993.94
2022-12-07T17:49:01.285Z,993.93
2022-12-07T17:54:07.299Z,993.89
2022-12-07T17:59:07.202Z,993.89
2022-12-07T18:03:53.753Z,993.89
2022-12-07T18:08:53.659Z,993.89
2022-12-07T18:13:53.708Z,993.81
2022-12-07T18:18:53.510Z,993.75
2022-12-07T18:23:53.854Z,993.71
2022-12-07T18:28:56.504Z,993.62
2022-12-07T18:33:53.347Z,993.62
2022-12-07T18:38:53.519Z,993.62
2022-12-07T18:43:53.227Z,993.60
2022-12-07T18:48:53.159Z,993.60
2022-12-07T18:53:53.155Z,993.54
2022-12-07T18:58:53.020Z,993.52
2022-12-07T19:03:52.900Z,993.59
2022-12-07T19:08:52.881Z,993.64
2022-12-07T19:13:52.798Z,993.61
2022-12-07T19:18:53.109Z,993.62
2022-12-07T19:23:52.645Z,993.54
2022-12-07T19:28:55.697Z,993.57
2022-12-07T19:33:52.626Z,993.58
2022-12-07T19:38:52.661Z,993.60
2022-12-07T19:43:52.395Z,993.55
2022-12-07T19:48:52.415Z,993.53
2022-12-07T19:53:52.269Z,993.54
2022-12-07T19:58:52.495Z,993.46
2022-12-07T20:03:52.395Z,993.44
2022-12-07T20:08:52.137Z,993.39
2022-12-07T20:13:51.995Z,993.39
2022-12-07T20:18:59.297Z,993.33
2022-12-07T20:23:51.861Z,993.32
2022-12-07T20:28:54.846Z,993.17
2022-12-07T20:33:51.740Z,993.20
2022-12-07T20:38:51.896Z,993.15
2022-12-07T20:43:51.735Z,993.13
2022-12-07T20:48:52.706Z,993.09
2022-12-07T20:53:58.977Z,993.05
2022-12-07T20:58:51.465Z,992.99
2022-12-07T21:03:51.425Z,992.98
2022-12-07T21:08:51.387Z,992.93
2022-12-07T21:13:51.330Z,992.94
2022-12-07T21:18:51.220Z,992.96
2022-12-07T21:23:55.495Z,992.91
2022-12-07T21:28:55.115Z,992.83
2022-12-07T21:33:51.003Z,992.77
2022-12-07T21:38:50.953Z,992.78
2022-12-07T21:43:50.900Z,992.75
2022-12-07T21:48:50.891Z,992.75
2022-12-07T21:53:50.730Z,992.74
2022-12-07T21:58:50.945Z,992.72
2022-12-07T22:03:50.713Z,992.72
2022-12-07T22:08:50.543Z,992.76
2022-12-07T22:13:50.410Z,992.76
2022-12-07T22:18:50.406Z,992.72
2022-12-07T22:23:50.317Z,992.65
2022-12-07T22:28:53.465Z,992.67
2022-12-07T22:33:50.324Z,992.64
2022-12-07T22:38:50.123Z,992.60
2022-12-07T22:43:50.010Z,992.57
2022-12-07T22:48:49.989Z,992.54
2022-12-07T22:53:50.091Z,992.44
2022-12-07T22:58:59.127Z,992.40
2022-12-07T23:03:49.845Z,992.38
2022-12-07T23:08:49.770Z,992.38
2022-12-07T23:13:49.659Z,992.31
2022-12-07T23:18:49.670Z,992.30
2022-12-07T23:23:49.594Z,992.31
2022-12-07T23:28:52.508Z,992.20
2022-12-07T23:33:49.392Z,992.12
2022-12-07T23:38:56.630Z,992.07
2022-12-07T23:43:56.964Z,992.12
2022-12-07T23:48:49.215Z,992.03
2022-12-07T23:53:49.313Z,991.98
2022-12-07T23:58:49.042Z,991.98
